Time;durP1;ratioP1;P1;durP2;ratioP2;P2;SDS_P1;SDS_P2;PMS_P1;PMS_P2;Temp;Humidity;BMP_temperature;BMP_pressure;BME280_temperature;BME280_humidity;BME280_pressure;Samples;Min_cycle;Max_cycle;Signal;HPM_P1;HPM_P2
2022/11/25 00:01:15;;;;;;;5.40;2.22;;;12.00;81.50;;;;;;4937716;29;20086;-81
2022/11/25 00:03:42;;;;;;;5.80;2.33;;;12.00;81.40;;;;;;4937704;29;20062;-81
2022/11/25 00:06:09;;;;;;;4.30;1.95;;;12.00;81.30;;;;;;4938007;29;20495;-80
2022/11/25 00:08:35;;;;;;;5.32;2.10;;;12.00;81.20;;;;;;4937438;29;20030;-81
2022/11/25 00:11:01;;;;;;;4.63;2.05;;;12.00;81.20;;;;;;4937692;29;20544;-81
2022/11/25 00:13:26;;;;;;;5.15;2.20;;;12.00;81.10;;;;;;4937640;29;20171;-81
2022/11/25 00:15:52;;;;;;;4.28;2.13;;;12.00;81.20;;;;;;4955075;29;20495;-81
2022/11/25 00:18:17;;;;;;;5.80;2.45;;;12.00;81.30;;;;;;4937496;29;20031;-81
2022/11/25 00:20:43;;;;;;;5.38;2.28;;;12.10;81.40;;;;;;4937471;29;20046;-82
2022/11/25 00:23:08;;;;;;;4.55;2.20;;;12.00;81.50;;;;;;4937243;29;20664;-80
2022/11/25 00:25:34;;;;;;;5.07;2.35;;;12.00;81.50;;;;;;4937472;29;20027;-81
2022/11/25 00:28:00;;;;;;;3.92;2.10;;;12.00;81.50;;;;;;4937381;29;20023;-81
2022/11/25 00:30:25;;;;;;;4.53;2.22;;;11.90;81.50;;;;;;4953473;29;20027;-82
2022/11/25 00:32:52;;;;;;;5.53;2.25;;;11.90;81.60;;;;;;4937486;29;20507;-81
2022/11/25 00:35:18;;;;;;;4.18;2.10;;;12.00;81.70;;;;;;4937475;29;20031;-82
2022/11/25 00:37:43;;;;;;;4.72;2.25;;;11.90;81.70;;;;;;4954668;29;20042;-81
2022/11/25 00:40:10;;;;;;;4.10;2.10;;;11.90;81.70;;;;;;4954485;29;20031;-81
2022/11/25 00:45:19;;;;;;;6.47;2.30;;;11.90;81.70;;;;;;4954752;29;20596;-81
2022/11/25 00:47:44;;;;;;;4.65;2.15;;;11.90;81.80;;;;;;4937115;29;20057;-81
2022/11/25 00:50:10;;;;;;;4.45;2.10;;;11.90;81.80;;;;;;4937177;29;20070;-81
2022/11/25 00:52:36;;;;;;;4.90;2.20;;;12.00;81.70;;;;;;4937328;29;20130;-81
2022/11/25 00:55:02;;;;;;;3.80;2.13;;;11.90;81.70;;;;;;4937176;29;20118;-81
2022/11/25 00:57:29;;;;;;;4.72;2.05;;;11.90;81.80;;;;;;4937059;29;20035;-81
2022/11/25 00:59:54;;;;;;;5.18;2.20;;;11.90;81.80;;;;;;4936879;29;20174;-81
2022/11/25 01:02:21;;;;;;;5.93;2.30;;;11.90;81.90;;;;;;4937157;29;20122;-82
2022/11/25 01:04:46;;;;;;;5.25;2.10;;;11.80;81.80;;;;;;4937095;29;20106;-80
2022/11/25 01:07:12;;;;;;;5.22;2.13;;;11.80;81.70;;;;;;4937334;29;20512;-81
2022/11/25 01:09:37;;;;;;;5.38;2.28;;;11.90;81.70;;;;;;4941958;28;20026;-82
2022/11/25 01:12:04;;;;;;;4.50;2.00;;;11.90;81.70;;;;;;4956293;28;20023;-81
2022/11/25 01:14:29;;;;;;;4.60;2.33;;;11.90;81.70;;;;;;4935643;29;20035;-81
2022/11/25 01:16:55;;;;;;;5.03;2.05;;;11.90;81.80;;;;;;4934878;29;20510;-81
2022/11/25 01:19:21;;;;;;;4.32;2.13;;;11.90;81.70;;;;;;4917813;29;20123;-81
2022/11/25 01:21:46;;;;;;;4.32;2.08;;;11.80;81.60;;;;;;4917814;29;20024;-81
2022/11/25 01:24:13;;;;;;;4.50;2.17;;;11.90;81.70;;;;;;4919500;29;20027;-81
2022/11/25 01:26:40;;;;;;;5.10;1.90;;;11.90;81.70;;;;;;4921582;29;20023;-81
2022/11/25 01:29:10;;;;;;;4.32;2.10;;;11.90;81.70;;;;;;4921488;29;20027;-80
2022/11/25 01:31:36;;;;;;;5.23;2.00;;;11.90;81.70;;;;;;4921504;29;20038;-82
2022/11/25 01:34:10;;;;;;;4.00;1.70;;;11.90;81.70;;;;;;4937382;29;20272;-81
2022/11/25 01:36:35;;;;;;;3.95;1.80;;;11.90;82.10;;;;;;4940990;29;20538;-84
2022/11/25 01:39:01;;;;;;;5.10;1.92;;;11.90;81.70;;;;;;4930805;29;20035;-84
2022/11/25 01:41:30;;;;;;;5.43;2.20;;;11.90;81.70;;;;;;4931190;29;20036;-81
2022/11/25 01:44:14;;;;;;;5.32;2.20;;;11.90;81.70;;;;;;4921652;29;20110;-81
2022/11/25 01:46:42;;;;;;;4.90;2.30;;;11.90;81.70;;;;;;4921215;29;20027;-81
2022/11/25 01:49:15;;;;;;;4.60;2.13;;;11.80;81.60;;;;;;4921222;29;20031;-81
2022/11/25 01:51:49;;;;;;;5.63;2.13;;;11.90;81.70;;;;;;4921032;29;20396;-82
2022/11/25 01:54:19;;;;;;;4.60;2.08;;;11.90;81.70;;;;;;4938165;29;20036;-82
2022/11/25 01:56:52;;;;;;;4.47;1.98;;;11.90;81.60;;;;;;4920862;29;20036;-79
2022/11/25 01:59:18;;;;;;;4.20;2.17;;;11.90;81.60;;;;;;4921061;29;20035;-82
2022/11/25 02:01:44;;;;;;;4.25;1.98;;;11.90;81.50;;;;;;4937969;29;20024;-81
2022/11/25 02:04:13;;;;;;;4.32;1.98;;;12.00;81.50;;;;;;4921052;29;20083;-81
2022/11/25 02:06:45;;;;;;;5.53;2.20;;;12.00;81.40;;;;;;4920891;29;20062;-82
2022/11/25 02:09:13;;;;;;;4.05;1.88;;;12.00;81.30;;;;;;4921089;29;20030;-81
2022/11/25 02:11:42;;;;;;;4.20;2.00;;;12.10;81.30;;;;;;4920797;29;20028;-82
2022/11/25 02:14:08;;;;;;;4.90;2.00;;;12.00;81.20;;;;;;4920921;29;20091;-81
2022/11/25 02:16:34;;;;;;;4.10;1.90;;;12.00;81.20;;;;;;4920753;29;20031;-82
2022/11/25 02:19:02;;;;;;;4.38;1.92;;;12.00;81.30;;;;;;4921766;29;20441;-81
2022/11/25 02:21:44;;;;;;;4.03;1.75;;;12.00;81.40;;;;;;4920403;29;20028;-81
2022/11/25 02:24:26;;;;;;;4.85;2.00;;;11.90;81.40;;;;;;4936500;29;20488;-82
2022/11/25 02:26:52;;;;;;;4.28;1.90;;;11.90;81.40;;;;;;4920427;29;20481;-81
2022/11/25 02:29:19;;;;;;;5.35;2.10;;;11.90;81.50;;;;;;4920457;29;20035;-80
2022/11/25 02:31:49;;;;;;;5.18;2.20;;;11.90;81.50;;;;;;4920504;29;20514;-81
2022/11/25 02:34:16;;;;;;;4.75;2.10;;;11.90;81.50;;;;;;4924773;29;20028;-83
2022/11/25 02:36:42;;;;;;;3.72;1.80;;;11.90;81.60;;;;;;4923778;29;20179;-82
2022/11/25 02:39:07;;;;;;;4.05;2.00;;;11.90;81.60;;;;;;4922138;29;20504;-82
2022/11/25 02:41:43;;;;;;;4.25;1.90;;;11.90;81.70;;;;;;4921463;29;20032;-82
2022/11/25 02:44:09;;;;;;;4.00;2.00;;;11.80;81.60;;;;;;4938353;29;20488;-82
2022/11/25 02:46:34;;;;;;;3.75;1.90;;;11.90;81.70;;;;;;4922103;29;20028;-83
2022/11/25 02:49:00;;;;;;;4.65;2.05;;;11.90;81.70;;;;;;4922685;29;20046;-82
2022/11/25 02:51:28;;;;;;;4.57;1.98;;;11.90;81.70;;;;;;4922763;29;20024;-82
2022/11/25 02:53:58;;;;;;;5.30;2.13;;;11.80;81.60;;;;;;4921606;29;20147;-82
2022/11/25 02:56:27;;;;;;;4.63;2.00;;;11.80;81.60;;;;;;4939403;29;20039;-82
2022/11/25 02:58:53;;;;;;;3.85;1.70;;;11.90;81.70;;;;;;4921456;29;20051;-80
2022/11/25 03:01:19;;;;;;;3.45;1.88;;;11.90;81.80;;;;;;4922227;29;20026;-82
2022/11/25 03:03:45;;;;;;;5.32;2.15;;;11.90;81.70;;;;;;4921683;29;20591;-81
2022/11/25 03:06:10;;;;;;;3.90;2.17;;;11.90;81.80;;;;;;4921562;29;20034;-82
2022/11/25 03:08:37;;;;;;;5.05;2.35;;;11.90;81.80;;;;;;4921717;29;20408;-82
2022/11/25 03:11:03;;;;;;;3.53;1.75;;;11.90;81.80;;;;;;4921636;29;20028;-83
2022/11/25 03:13:29;;;;;;;4.75;1.98;;;11.80;81.80;;;;;;4921515;29;20028;-82
2022/11/25 03:15:54;;;;;;;4.78;2.20;;;11.90;81.80;;;;;;4921305;29;20523;-82
2022/11/25 03:18:20;;;;;;;5.32;2.08;;;11.90;81.80;;;;;;4921799;29;20423;-82
2022/11/25 03:20:45;;;;;;;4.68;2.03;;;11.90;81.80;;;;;;4920672;29;20032;-82
2022/11/25 03:23:11;;;;;;;4.40;1.92;;;11.90;81.80;;;;;;4921061;29;20059;-82
2022/11/25 03:25:37;;;;;;;3.95;1.80;;;11.90;81.80;;;;;;4921233;29;20027;-82
2022/11/25 03:28:03;;;;;;;4.47;1.98;;;11.90;81.70;;;;;;4921551;29;20051;-84
2022/11/25 03:30:29;;;;;;;4.15;1.90;;;11.80;81.70;;;;;;4920958;29;20493;-82
2022/11/25 03:32:55;;;;;;;4.30;1.88;;;12.20;81.90;;;;;;4937906;29;20046;-82
2022/11/25 03:35:21;;;;;;;5.15;2.40;;;12.00;81.80;;;;;;4920880;29;20028;-82
2022/11/25 03:37:46;;;;;;;3.90;1.77;;;11.80;81.70;;;;;;4921183;29;20118;-82
2022/11/25 03:40:14;;;;;;;5.32;2.08;;;11.90;81.80;;;;;;4936040;29;20031;-81
2022/11/25 03:42:40;;;;;;;4.63;1.98;;;11.90;81.80;;;;;;4949198;29;20055;-82
2022/11/25 03:45:06;;;;;;;3.92;1.90;;;11.90;81.80;;;;;;4943573;29;20030;-82
2022/11/25 03:47:32;;;;;;;4.30;1.88;;;11.90;81.80;;;;;;4940117;29;20050;-82
2022/11/25 03:49:57;;;;;;;3.90;1.67;;;11.90;81.80;;;;;;4940528;29;20400;-83
2022/11/25 03:52:23;;;;;;;4.95;2.00;;;11.90;81.80;;;;;;4939744;29;20027;-82
2022/11/25 03:54:49;;;;;;;4.82;1.80;;;11.90;81.70;;;;;;4939312;29;20079;-82
2022/11/25 03:57:15;;;;;;;4.00;1.75;;;11.90;81.60;;;;;;4939395;29;20094;-81
2022/11/25 03:59:41;;;;;;;4.60;2.00;;;11.90;81.60;;;;;;4939411;29;20023;-82
2022/11/25 04:02:06;;;;;;;4.18;1.80;;;11.90;81.40;;;;;;4945114;28;20107;-82
2022/11/25 04:04:32;;;;;;;4.07;2.10;;;12.00;81.40;;;;;;4959461;28;20041;-82
2022/11/25 04:06:57;;;;;;;4.00;1.80;;;12.20;81.40;;;;;;4961249;28;20050;-82
2022/11/25 04:09:24;;;;;;;3.22;1.60;;;12.00;81.20;;;;;;4958310;28;20538;-82
2022/11/25 04:14:35;;;;;;;3.75;1.80;;;12.00;81.50;;;;;;4976707;28;20049;-82
2022/11/25 04:17:00;;;;;;;4.07;2.08;;;12.00;81.40;;;;;;4967664;28;20031;-85
2022/11/25 04:19:26;;;;;;;4.72;2.15;;;11.90;81.40;;;;;;4974759;28;20043;-85
2022/11/25 04:21:52;;;;;;;2.53;1.50;;;11.90;81.50;;;;;;4964426;28;20053;-82
2022/11/25 04:24:18;;;;;;;3.63;1.88;;;11.90;81.50;;;;;;4958365;28;20031;-83
2022/11/25 04:26:43;;;;;;;3.83;1.88;;;11.90;81.50;;;;;;4957906;28;20026;-82
2022/11/25 04:29:09;;;;;;;4.40;1.75;;;11.90;81.60;;;;;;4949514;28;20027;-82
2022/11/25 04:31:36;;;;;;;4.35;1.77;;;11.90;81.60;;;;;;4957755;28;20031;-82
2022/11/25 04:34:02;;;;;;;4.18;1.60;;;11.90;81.70;;;;;;4949158;28;20035;-82
2022/11/25 04:36:28;;;;;;;4.07;1.70;;;11.90;81.70;;;;;;4971647;28;20027;-82
2022/11/25 04:38:54;;;;;;;3.60;1.98;;;11.90;81.70;;;;;;4939081;29;20555;-81
2022/11/25 04:41:20;;;;;;;3.67;1.80;;;11.90;81.70;;;;;;4939010;29;20082;-82
2022/11/25 04:43:45;;;;;;;4.05;2.00;;;11.90;81.80;;;;;;4957361;28;20030;-81
2022/11/25 04:46:18;;;;;;;3.20;1.67;;;11.90;81.80;;;;;;4975218;28;20115;-82
2022/11/25 04:48:43;;;;;;;3.70;1.83;;;11.90;81.80;;;;;;4958048;28;20023;-82
2022/11/25 04:51:09;;;;;;;3.08;1.60;;;11.90;81.80;;;;;;4940164;29;20031;-83
2022/11/25 04:53:34;;;;;;;4.80;1.90;;;11.90;81.90;;;;;;4938864;29;20070;-82
2022/11/25 04:56:00;;;;;;;3.15;1.70;;;11.90;81.80;;;;;;4949753;28;20039;-82
2022/11/25 05:01:09;;;;;;;4.70;2.05;;;11.90;81.80;;;;;;4960557;28;20038;-82
2022/11/25 05:03:35;;;;;;;5.15;1.90;;;13.10;82.50;;;;;;4978778;28;20031;-82
2022/11/25 05:06:06;;;;;;;3.28;1.55;;;11.90;81.80;;;;;;4955934;29;20023;-82
2022/11/25 05:08:31;;;;;;;4.25;1.80;;;11.90;82.30;;;;;;4951595;28;20034;-83
2022/11/25 05:10:58;;;;;;;4.43;1.90;;;11.90;81.90;;;;;;4948525;29;20031;-82
2022/11/25 05:13:24;;;;;;;3.33;1.67;;;11.80;81.70;;;;;;4953685;28;20031;-81
2022/11/25 05:15:50;;;;;;;3.97;1.70;;;11.90;81.80;;;;;;4943039;28;20037;-83
2022/11/25 05:18:15;;;;;;;3.72;1.70;;;11.90;81.80;;;;;;4978862;28;20098;-81
2022/11/25 05:20:41;;;;;;;4.68;1.70;;;11.90;81.90;;;;;;4942019;29;20520;-82
2022/11/25 05:28:36;;;;;;;4.88;1.95;;;11.90;81.80;;;;;;5690304;23;20058;-81
2022/11/25 05:31:01;;;;;;;4.47;2.15;;;11.90;82.30;;;;;;4972898;28;20253;-81
2022/11/25 05:33:27;;;;;;;2.95;1.60;;;11.90;81.80;;;;;;4960669;28;20247;-81
2022/11/25 05:36:03;;;;;;;4.03;2.15;;;11.80;81.70;;;;;;4960375;28;20398;-82
2022/11/25 05:44:04;;;;;;;3.13;1.85;;;11.90;81.80;;;;;;5052693;23;20058;-82
2022/11/25 05:47:14;;;;;;;3.90;1.80;;;11.80;81.70;;;;;;4966085;28;20023;-81
2022/11/25 05:53:55;;;;;;;5.38;1.92;;;11.90;81.70;;;;;;4899741;29;20470;-81
2022/11/25 06:02:56;;;;;;;3.47;1.73;;;11.90;81.30;;;;;;5297958;23;20055;-81
2022/11/25 06:05:22;;;;;;;3.65;1.73;;;13.50;82.10;;;;;;4952041;28;20413;-79
2022/11/25 06:07:52;;;;;;;3.40;1.75;;;12.00;81.20;;;;;;4985616;28;20529;-81
2022/11/25 06:10:19;;;;;;;4.10;1.70;;;12.00;81.20;;;;;;4975232;28;20121;-79
2022/11/25 06:12:45;;;;;;;3.90;1.85;;;11.90;81.30;;;;;;4976701;28;20110;-80
2022/11/25 06:15:16;;;;;;;4.00;1.80;;;11.90;81.30;;;;;;4960059;28;20027;-78
2022/11/25 06:17:47;;;;;;;3.92;1.92;;;11.90;81.40;;;;;;4963524;28;20047;-81
2022/11/25 06:20:18;;;;;;;4.85;2.13;;;11.90;81.50;;;;;;4959741;28;20562;-76
2022/11/25 06:22:43;;;;;;;3.50;1.80;;;11.90;81.60;;;;;;4958426;28;20153;-78
2022/11/25 06:25:09;;;;;;;4.13;1.90;;;11.90;81.60;;;;;;4977051;28;20296;-77
2022/11/25 06:27:34;;;;;;;4.25;1.98;;;11.80;81.60;;;;;;4956872;28;20027;-78
2022/11/25 06:30:00;;;;;;;4.65;2.15;;;11.90;81.70;;;;;;4956571;28;20115;-79
2022/11/25 06:32:26;;;;;;;3.78;1.98;;;11.90;81.70;;;;;;4953066;28;20023;-78
2022/11/25 06:34:51;;;;;;;4.63;2.00;;;11.90;81.80;;;;;;4963391;28;20082;-76
2022/11/25 06:37:17;;;;;;;3.97;1.95;;;11.90;81.80;;;;;;4957243;28;20482;-75
2022/11/25 06:39:42;;;;;;;4.95;2.20;;;11.90;81.80;;;;;;4974809;28;20482;-75
2022/11/25 06:42:08;;;;;;;3.80;1.92;;;11.90;81.80;;;;;;4957563;28;20027;-78
2022/11/25 06:44:33;;;;;;;4.38;2.20;;;11.80;81.70;;;;;;4958548;28;20030;-76
2022/11/25 06:46:59;;;;;;;5.60;2.65;;;11.90;81.90;;;;;;4958034;28;20037;-79
2022/11/25 06:49:24;;;;;;;4.40;2.20;;;11.90;81.90;;;;;;4951582;28;20019;-79
2022/11/25 06:51:50;;;;;;;5.15;2.10;;;11.80;81.80;;;;;;4948840;28;20074;-77
2022/11/25 06:54:16;;;;;;;4.47;2.10;;;11.90;81.90;;;;;;4958414;28;20090;-78
2022/11/25 06:56:41;;;;;;;4.45;2.10;;;11.90;81.90;;;;;;4962098;28;20041;-76
2022/11/25 06:59:07;;;;;;;4.88;2.22;;;11.90;81.90;;;;;;4971799;28;20506;-80
2022/11/25 07:05:06;;;;;;;4.63;2.22;;;12.00;81.90;;;;;;5162831;23;20054;-86
2022/11/25 07:23:04;;;;;;;5.72;2.15;;;11.80;82.00;;;;;;5148533;23;20430;-75
2022/11/25 07:25:32;;;;;;;5.78;2.55;;;11.80;81.80;;;;;;4958209;28;20046;-84
2022/11/25 07:27:58;;;;;;;5.10;2.30;;;11.90;81.90;;;;;;4958153;28;20030;-80
2022/11/25 07:30:24;;;;;;;10.27;3.22;;;11.90;81.90;;;;;;4973457;28;20019;-77
2022/11/25 07:32:49;;;;;;;16.80;3.00;;;11.80;81.80;;;;;;4973580;28;20569;-78
2022/11/25 07:35:15;;;;;;;6.65;2.97;;;11.80;81.80;;;;;;4956099;28;20031;-75
2022/11/25 07:37:41;;;;;;;10.07;2.80;;;11.80;81.80;;;;;;4956254;28;20031;-77
2022/11/25 07:40:07;;;;;;;11.93;2.78;;;11.80;81.90;;;;;;4955891;28;20037;-78
2022/11/25 07:42:32;;;;;;;6.97;2.85;;;11.80;81.80;;;;;;4973185;28;20047;-78
2022/11/25 07:44:58;;;;;;;6.65;2.70;;;11.80;81.90;;;;;;4956097;28;20171;-77
2022/11/25 07:47:24;;;;;;;8.30;2.80;;;11.90;81.90;;;;;;4955941;28;20506;-77
2022/11/25 07:49:49;;;;;;;6.70;2.42;;;11.90;81.80;;;;;;4955629;28;20507;-78
2022/11/25 07:52:15;;;;;;;6.65;2.70;;;11.90;81.70;;;;;;4973202;28;20047;-77
2022/11/25 07:54:40;;;;;;;4.97;2.60;;;11.90;81.80;;;;;;4955824;28;20061;-77
2022/11/25 07:57:06;;;;;;;5.47;2.47;;;11.90;81.70;;;;;;4955509;28;20037;-77
2022/11/25 07:59:31;;;;;;;5.47;2.30;;;11.90;81.50;;;;;;4972926;28;20499;-76
2022/11/25 08:01:57;;;;;;;5.78;2.83;;;11.90;81.40;;;;;;4955459;28;20125;-77
2022/11/25 08:04:23;;;;;;;6.45;2.42;;;12.00;81.40;;;;;;4955884;28;20031;-78
2022/11/25 08:06:51;;;;;;;6.75;2.58;;;12.00;81.30;;;;;;4955579;28;20399;-77
2022/11/25 08:09:19;;;;;;;7.45;2.58;;;12.00;81.30;;;;;;4955760;28;20019;-77
2022/11/25 08:11:45;;;;;;;6.03;2.53;;;12.00;81.40;;;;;;4987609;28;20022;-77
2022/11/25 08:14:11;;;;;;;5.20;2.30;;;11.90;81.50;;;;;;4974843;28;20400;-77
2022/11/25 08:16:37;;;;;;;5.10;2.38;;;11.90;81.50;;;;;;4992296;28;20034;-77
2022/11/25 08:19:05;;;;;;;6.75;3.42;;;11.90;81.70;;;;;;4992996;28;20033;-78
2022/11/25 08:21:31;;;;;;;6.03;2.38;;;11.90;81.80;;;;;;4991703;28;20026;-77
2022/11/25 08:23:57;;;;;;;5.38;2.50;;;11.90;81.90;;;;;;4974359;28;20037;-78
2022/11/25 08:26:32;;;;;;;6.00;2.55;;;11.90;81.80;;;;;;4982357;28;20042;-77
2022/11/25 08:28:59;;;;;;;6.72;2.45;;;11.90;81.80;;;;;;4954767;28;20026;-78
2022/11/25 08:31:30;;;;;;;5.55;2.10;;;11.90;81.90;;;;;;4972094;28;20495;-78
2022/11/25 08:33:57;;;;;;;5.72;2.28;;;11.80;81.90;;;;;;4954323;28;20045;-75
2022/11/25 08:36:25;;;;;;;5.43;2.35;;;11.90;82.00;;;;;;4955814;28;20031;-76
2022/11/25 08:38:56;;;;;;;6.68;2.53;;;11.80;82.00;;;;;;4971979;28;20114;-75
2022/11/25 08:41:34;;;;;;;5.65;2.28;;;11.90;82.00;;;;;;4972118;28;20507;-77
2022/11/25 08:44:01;;;;;;;4.85;2.10;;;11.90;82.10;;;;;;4955465;28;20031;-76
2022/11/25 08:46:32;;;;;;;4.93;2.30;;;11.90;82.10;;;;;;4955618;28;20019;-77
2022/11/25 08:48:58;;;;;;;5.97;2.17;;;11.90;82.10;;;;;;4955557;28;20033;-77
2022/11/25 08:51:28;;;;;;;5.05;2.50;;;11.80;82.00;;;;;;4955145;28;20059;-79
2022/11/25 08:53:55;;;;;;;4.47;2.00;;;11.80;82.00;;;;;;4955826;28;20515;-80
2022/11/25 08:56:22;;;;;;;4.97;2.25;;;11.90;82.10;;;;;;4955802;28;20261;-78
2022/11/25 08:58:48;;;;;;;5.88;2.25;;;11.90;82.10;;;;;;4955221;28;20049;-78
2022/11/25 09:01:15;;;;;;;5.85;2.45;;;11.90;82.10;;;;;;4942934;28;20034;-80
2022/11/25 09:03:44;;;;;;;5.07;2.47;;;11.80;82.00;;;;;;4927834;29;20415;-79
2022/11/25 09:06:11;;;;;;;5.78;2.10;;;11.90;82.10;;;;;;4950397;29;20020;-78
2022/11/25 09:08:38;;;;;;;5.38;2.25;;;11.80;82.00;;;;;;4934590;29;20031;-78
2022/11/25 09:14:26;;;;;;;3.85;2.00;;;11.90;82.10;;;;;;4963693;28;20057;-78
2022/11/25 09:16:52;;;;;;;4.95;2.25;;;11.90;82.10;;;;;;4935985;29;20480;-78
2022/11/25 09:19:19;;;;;;;5.65;2.20;;;11.90;82.10;;;;;;4953090;29;20024;-77
2022/11/25 09:21:44;;;;;;;5.18;2.00;;;11.90;82.10;;;;;;4951590;29;20028;-79
2022/11/25 09:24:10;;;;;;;5.13;2.15;;;11.80;82.10;;;;;;4951890;29;20039;-78
2022/11/25 09:26:57;;;;;;;4.10;2.00;;;11.80;82.10;;;;;;4957340;29;20030;-82
2022/11/25 09:48:03;;;;;;;4.88;2.03;;;11.90;82.20;;;;;;5028979;23;20428;-83
2022/11/25 09:51:10;;;;;;;4.87;2.00;;;11.90;82.10;;;;;;4938283;29;20028;-82
2022/11/25 09:53:44;;;;;;;4.80;2.15;;;12.00;82.10;;;;;;4945797;29;20030;-80
2022/11/25 09:56:34;;;;;;;5.85;2.10;;;12.00;82.00;;;;;;4955080;29;20051;-80
2022/11/25 09:59:29;;;;;;;;;;;12.00;81.90;;;;;;4955137;29;20459;-80
2022/11/25 10:02:00;;;;;;;4.32;2.10;;;12.00;81.80;;;;;;4946099;29;19913;-80
2022/11/25 10:04:31;;;;;;;5.80;2.63;;;12.00;81.70;;;;;;4955959;29;20070;-80
2022/11/25 10:07:01;;;;;;;4.70;2.22;;;12.00;81.70;;;;;;4936630;29;20019;-80
2022/11/25 10:09:33;;;;;;;5.03;1.90;;;12.00;81.70;;;;;;4951463;29;20028;-80
2022/11/25 10:12:30;;;;;;;4.03;2.20;;;12.00;81.70;;;;;;4951433;29;20121;-80
2022/11/25 10:15:01;;;;;;;5.22;2.00;;;12.00;81.70;;;;;;4951346;29;20032;-80
2022/11/25 10:17:39;;;;;;;4.82;2.00;;;12.00;81.80;;;;;;4936533;29;20031;-81
2022/11/25 10:20:22;;;;;;;4.70;1.90;;;12.00;81.80;;;;;;4936276;29;20091;-81
2022/11/25 10:22:51;;;;;;;4.60;2.13;;;12.10;81.90;;;;;;4964136;28;20133;-82
2022/11/25 10:25:19;;;;;;;5.28;1.90;;;12.20;81.50;;;;;;4968390;28;20101;-81
2022/11/25 10:27:58;;;;;;;4.00;2.03;;;12.30;81.20;;;;;;4974814;28;20115;-81
2022/11/25 10:30:30;;;;;;;4.85;2.00;;;12.40;80.80;;;;;;4973388;28;20305;-79
2022/11/25 10:33:11;;;;;;;3.72;2.08;;;12.40;80.50;;;;;;4973284;28;20113;-80
2022/11/25 10:35:42;;;;;;;5.45;1.98;;;12.40;80.40;;;;;;4973284;28;20037;-83
2022/11/25 10:38:23;;;;;;;5.63;2.10;;;12.40;80.30;;;;;;4973193;28;20027;-80
2022/11/25 10:40:51;;;;;;;4.40;1.80;;;12.40;80.40;;;;;;4974154;28;20289;-80
2022/11/25 10:43:17;;;;;;;4.32;2.20;;;12.40;80.50;;;;;;4955421;28;20039;-80
2022/11/25 10:46:02;;;;;;;5.20;2.15;;;12.40;80.60;;;;;;4953993;29;20487;-80
2022/11/25 10:48:55;;;;;;;4.40;1.85;;;12.40;80.40;;;;;;4954012;29;20147;-79
2022/11/25 10:51:48;;;;;;;5.18;2.10;;;12.40;80.50;;;;;;4953608;29;20240;-80
2022/11/25 10:54:25;;;;;;;4.68;2.15;;;12.40;80.40;;;;;;4934785;29;20114;-80
2022/11/25 10:56:55;;;;;;;3.85;2.05;;;12.40;80.50;;;;;;4934520;29;20028;-81
2022/11/25 10:59:36;;;;;;;3.55;1.67;;;12.40;80.50;;;;;;4950535;29;20031;-80
2022/11/25 11:02:22;;;;;;;4.97;2.45;;;12.40;80.50;;;;;;4935485;29;20039;-77
2022/11/25 11:04:58;;;;;;;4.40;1.92;;;12.40;80.50;;;;;;4950637;29;20032;-80
2022/11/25 11:07:34;;;;;;;6.55;2.17;;;12.40;80.30;;;;;;4950399;29;20065;-81
2022/11/25 11:10:19;;;;;;;3.95;1.85;;;12.40;80.40;;;;;;4950123;29;20024;-78
2022/11/25 11:13:22;;;;;;;4.50;2.08;;;12.40;80.50;;;;;;4950896;29;20039;-81
2022/11/25 11:15:49;;;;;;;4.65;1.98;;;12.40;80.60;;;;;;4932622;29;20036;-83
2022/11/25 11:19:11;;;;;;;4.90;2.08;;;12.20;80.60;;;;;;4935034;29;20135;-79
2022/11/25 11:21:40;;;;;;;3.90;2.00;;;12.30;80.80;;;;;;4949899;29;20040;-81
2022/11/25 11:24:31;;;;;;;3.75;1.88;;;12.40;81.00;;;;;;4934868;29;20495;-80
2022/11/25 11:27:21;;;;;;;3.70;1.83;;;12.40;80.90;;;;;;4934883;29;20048;-80
2022/11/25 11:29:46;;;;;;;4.25;1.70;;;12.40;80.70;;;;;;4934010;29;20256;-80
2022/11/25 11:32:23;;;;;;;3.88;1.88;;;12.40;80.50;;;;;;4933777;29;20023;-82
2022/11/25 11:35:18;;;;;;;3.38;1.75;;;12.40;80.50;;;;;;4933701;29;20059;-81
2022/11/25 11:37:52;;;;;;;3.95;1.80;;;12.50;80.50;;;;;;4926353;29;20043;-80
2022/11/25 11:40:45;;;;;;;4.15;1.95;;;12.40;80.40;;;;;;4940371;28;20129;-80
2022/11/25 11:47:09;;;;;;;4.95;1.80;;;12.50;80.60;;;;;;4953835;29;20126;-80
2022/11/25 11:49:59;;;;;;;4.03;1.88;;;12.50;80.50;;;;;;4954031;28;20031;-81
2022/11/25 11:52:42;;;;;;;3.80;1.80;;;12.60;80.40;;;;;;4952522;29;20090;-82
2022/11/25 12:02:04;;;;;;;5.20;1.88;;;12.80;79.30;;;;;;4984414;23;20065;-81
2022/11/25 12:04:51;;;;;;;4.60;1.88;;;12.90;79.30;;;;;;4971782;28;20057;-80
2022/11/25 12:07:43;;;;;;;4.53;1.85;;;12.90;78.90;;;;;;4971322;28;20019;-81
2022/11/25 12:10:29;;;;;;;4.90;1.90;;;12.90;78.90;;;;;;4974282;28;20030;-81
2022/11/25 12:13:06;;;;;;;5.40;2.05;;;12.90;78.70;;;;;;4977198;28;20101;-81
2022/11/25 12:15:53;;;;;;;3.60;1.80;;;12.90;78.60;;;;;;4959305;28;20023;-80
2022/11/25 12:18:32;;;;;;;4.25;2.00;;;12.90;78.70;;;;;;4957914;28;20023;-80
2022/11/25 12:21:02;;;;;;;4.28;1.95;;;12.90;78.70;;;;;;4975513;28;20023;-80
2022/11/25 12:23:39;;;;;;;4.90;2.00;;;12.90;78.80;;;;;;4976348;28;20078;-82
2022/11/25 12:26:16;;;;;;;2.95;1.80;;;12.90;78.80;;;;;;4976427;28;20026;-80
2022/11/25 12:28:53;;;;;;;3.35;1.77;;;12.90;78.80;;;;;;4974332;28;20026;-80
2022/11/25 12:31:46;;;;;;;4.68;2.10;;;12.90;79.00;;;;;;4957849;28;20089;-80
2022/11/25 12:34:40;;;;;;;4.65;2.03;;;12.90;78.90;;;;;;4956636;28;20130;-81
2022/11/25 12:37:20;;;;;;;4.72;2.17;;;12.90;79.00;;;;;;4975323;28;20435;-80
2022/11/25 12:39:55;;;;;;;3.30;1.90;;;12.90;78.80;;;;;;4975474;28;20487;-80
2022/11/25 12:42:27;;;;;;;4.10;2.00;;;12.90;79.00;;;;;;4958893;28;20027;-78
2022/11/25 12:45:09;;;;;;;3.10;1.80;;;12.90;78.90;;;;;;4958340;28;20027;-81
2022/11/25 12:47:34;;;;;;;5.35;1.98;;;12.90;78.90;;;;;;4958396;28;20055;-80
2022/11/25 12:50:00;;;;;;;3.40;2.00;;;12.90;78.90;;;;;;4957855;28;20502;-80
2022/11/25 12:52:36;;;;;;;4.93;2.08;;;12.90;78.90;;;;;;4975893;28;20019;-82
2022/11/25 12:55:13;;;;;;;3.65;2.00;;;12.90;79.00;;;;;;4957872;28;20026;-81
2022/11/25 12:57:57;;;;;;;4.40;2.00;;;13.00;79.00;;;;;;4958539;28;20065;-80
2022/11/25 13:00:42;;;;;;;3.78;1.92;;;12.90;79.00;;;;;;4956832;28;20039;-80
2022/11/25 13:03:37;;;;;;;4.95;2.08;;;12.90;79.00;;;;;;4957544;28;20032;-80
2022/11/25 13:06:19;;;;;;;4.13;2.00;;;12.90;79.00;;;;;;4974421;28;20407;-80
2022/11/25 13:09:01;;;;;;;4.15;2.03;;;12.90;79.10;;;;;;4957566;28;20034;-80
2022/11/25 13:12:15;;;;;;;3.97;1.90;;;12.90;79.20;;;;;;4956631;28;20466;-80
2022/11/25 13:14:54;;;;;;;3.47;1.73;;;12.80;79.20;;;;;;4974106;28;20661;-80
2022/11/25 13:17:22;;;;;;;2.92;1.80;;;12.80;79.40;;;;;;4956797;28;20557;-80
2022/11/25 13:19:47;;;;;;;3.85;1.73;;;12.80;79.50;;;;;;4957203;28;20030;-80
2022/11/25 13:22:28;;;;;;;3.10;1.80;;;12.80;79.60;;;;;;4960732;28;20553;-80
2022/11/25 13:24:56;;;;;;;4.38;2.10;;;12.70;79.60;;;;;;4977434;28;20030;-80
2022/11/25 13:27:28;;;;;;;3.17;1.85;;;12.70;79.70;;;;;;4960147;28;20023;-80
2022/11/25 13:29:54;;;;;;;4.70;2.05;;;12.70;79.80;;;;;;4960103;28;20027;-80
2022/11/25 13:32:35;;;;;;;4.55;1.90;;;12.70;80.00;;;;;;4977717;28;20023;-79
2022/11/25 13:35:23;;;;;;;4.13;2.10;;;12.70;80.10;;;;;;4976102;28;20391;-80
2022/11/25 13:37:50;;;;;;;4.60;2.05;;;12.60;80.10;;;;;;4948359;29;20038;-78
2022/11/25 13:40:22;;;;;;;4.13;1.90;;;12.60;80.30;;;;;;4974582;28;20121;-79
2022/11/25 13:42:49;;;;;;;3.45;1.83;;;12.60;80.40;;;;;;4959725;28;20030;-80
2022/11/25 13:45:37;;;;;;;2.75;1.83;;;12.60;80.50;;;;;;4959055;28;20049;-79
2022/11/25 13:48:19;;;;;;;3.97;2.10;;;12.60;80.50;;;;;;4976183;28;20058;-81
2022/11/25 13:50:47;;;;;;;3.25;1.83;;;12.60;80.60;;;;;;4958482;28;20054;-80
2022/11/25 13:53:29;;;;;;;3.60;1.92;;;12.60;80.50;;;;;;4975347;28;20030;-80
2022/11/25 13:56:31;;;;;;;3.22;1.92;;;12.60;80.40;;;;;;4974707;28;20030;-79
2022/11/25 13:59:09;;;;;;;3.10;1.85;;;12.60;80.30;;;;;;4957795;28;20533;-79
2022/11/25 14:01:55;;;;;;;3.78;1.90;;;12.60;80.20;;;;;;4975393;28;20039;-79
2022/11/25 14:04:35;;;;;;;3.97;1.90;;;12.70;80.20;;;;;;4957383;28;20035;-79
2022/11/25 14:07:26;;;;;;;3.67;1.80;;;12.70;80.10;;;;;;4975630;28;20371;-79
2022/11/25 14:10:11;;;;;;;;;;;12.60;80.20;;;;;;4958441;28;20138;-79
2022/11/25 14:13:19;;;;;;;3.80;2.10;;;12.60;80.20;;;;;;4958106;28;19914;-79
2022/11/25 14:15:56;;;;;;;3.00;1.80;;;12.60;80.40;;;;;;4957610;28;20050;-79
2022/11/25 14:19:00;;;;;;;3.88;2.00;;;12.60;80.50;;;;;;4995899;23;20053;-84
2022/11/25 14:21:46;;;;;;;3.63;1.83;;;12.50;80.70;;;;;;4961725;28;20487;-82
2022/11/25 14:24:25;;;;;;;3.72;1.77;;;12.50;80.70;;;;;;4994955;28;20050;-83
2022/11/25 14:26:52;;;;;;;2.60;1.98;;;12.50;80.80;;;;;;4993884;28;20568;-81
2022/11/25 14:29:40;;;;;;;6.50;2.10;;;12.40;80.80;;;;;;4994953;28;20022;-82
2022/11/25 14:32:17;;;;;;;3.38;2.08;;;12.30;80.90;;;;;;4977183;28;20019;-83